Metar z połowy godziny Komunikat METAR ze strony awiacja.imgw.pl Metar G30 EPWA METAR EPWA 190130Z 31004KT CAVOK 17/15 Q1018 NOSIG=